Terminal Aerodrome Forecast
Issued by NWS

Home | Current Version | Previous Version | Text Only | Print | Product List | Glossary On
Versions: 1 2 3 4 5 6 7 8 9 10 11 12 13 14 15 16 17 18 19
000
FTAK31 PANC 280647 AAA
TAFAGK
TAF AMD
PAGK 280647Z 2807/0106 34008KT P6SM SCT045 BKN060
      TEMPO 2807/2811 BKN025
     FM282000 36018G28KT P6SM SCT080 BKN120=

USA.gov is the U.S. government's official web portal to all federal, state and local government web resources and services.